createdAt,value
2015-10-19T00:00:12.946Z,731.42
2015-10-19T00:00:26.149Z,731.44
2015-10-19T00:00:39.352Z,731.43
2015-10-19T00:00:52.556Z,731.49
2015-10-19T00:01:05.746Z,731.44
2015-10-19T00:01:18.965Z,731.41
2015-10-19T00:01:32.168Z,731.44
2015-10-19T00:01:45.402Z,731.44
2015-10-19T00:01:58.637Z,731.42
2015-10-19T00:02:11.843Z,731.45
2015-10-19T00:02:25.046Z,731.4
2015-10-19T00:02:38.233Z,731.42
2015-10-19T00:02:51.452Z,731.35
2015-10-19T00:03:04.674Z,731.38
2015-10-19T00:03:17.908Z,731.31
2015-10-19T00:03:31.143Z,731.41
2015-10-19T00:03:44.190Z,731.51
2015-10-19T00:03:57.393Z,731.53
2015-10-19T00:04:10.599Z,731.48
2015-10-19T00:04:23.802Z,731.38
2015-10-19T00:04:37.005Z,731.45
2015-10-19T00:04:50.239Z,731.51
2015-10-19T00:05:03.474Z,731.5
2015-10-19T00:05:16.710Z,731.5
2015-10-19T00:05:29.913Z,731.5
2015-10-19T00:05:43.101Z,731.49
2015-10-19T00:05:56.304Z,731.44
2015-10-19T00:06:09.493Z,731.44
2015-10-19T00:06:22.697Z,731.45
2015-10-19T00:06:35.900Z,731.45
2015-10-19T00:06:49.118Z,731.5
2015-10-19T00:07:02.322Z,731.52
2015-10-19T00:07:15.559Z,731.52
2015-10-19T00:07:28.809Z,731.53
2015-10-19T00:07:42.043Z,731.51
2015-10-19T00:07:55.278Z,731.53
2015-10-19T00:08:08.484Z,731.52
2015-10-19T00:08:21.656Z,731.52
2015-10-19T00:08:34.843Z,731.55
2015-10-19T00:08:48.031Z,731.51
2015-10-19T00:09:01.218Z,731.49
2015-10-19T00:09:14.424Z,731.48
2015-10-19T00:09:27.627Z,731.52
2015-10-19T00:09:40.846Z,731.55
2015-10-19T00:09:54.081Z,731.54
2015-10-19T00:10:07.315Z,731.61
2015-10-19T00:10:20.537Z,731.56
2015-10-19T00:10:33.740Z,731.58
2015-10-19T00:10:46.959Z,731.6
2015-10-19T00:11:00.146Z,731.59
2015-10-19T00:11:13.351Z,731.55
2015-10-19T00:11:26.554Z,731.51
2015-10-19T00:11:39.757Z,731.59
2015-10-19T00:11:52.992Z,731.47
2015-10-19T00:12:06.211Z,731.49
2015-10-19T00:12:19.448Z,731.45
2015-10-19T00:12:32.698Z,731.49
2015-10-19T00:12:45.932Z,731.54
2015-10-19T00:12:59.135Z,731.47
2015-10-19T00:13:12.342Z,731.42
2015-10-19T00:13:25.545Z,731.54
2015-10-19T00:13:38.748Z,731.55
2015-10-19T00:13:51.951Z,731.55
2015-10-19T00:14:05.154Z,731.57
2015-10-19T00:14:18.376Z,731.57
2015-10-19T00:14:31.595Z,731.6
2015-10-19T00:14:44.845Z,731.55
2015-10-19T00:14:58.063Z,731.57
2015-10-19T00:15:11.266Z,731.57
2015-10-19T00:15:24.472Z,731.55
2015-10-19T00:15:37.675Z,731.56
2015-10-19T00:15:50.893Z,731.53
2015-10-19T00:16:04.097Z,731.51
2015-10-19T00:16:17.303Z,731.53
2015-10-19T00:16:30.506Z,731.55
2015-10-19T00:16:43.740Z,731.58
2015-10-19T00:16:56.975Z,731.59
2015-10-19T00:17:10.225Z,731.57
2015-10-19T00:17:23.431Z,731.64
2015-10-19T00:17:36.634Z,731.59
2015-10-19T00:17:49.837Z,731.61
2015-10-19T00:18:03.024Z,731.62
2015-10-19T00:18:15.509Z,731.6
2015-10-19T00:18:28.698Z,731.58
2015-10-19T00:18:41.933Z,731.63
2015-10-19T00:18:55.151Z,731.65
2015-10-19T00:19:08.401Z,731.64
2015-10-19T00:19:21.623Z,731.65
2015-10-19T00:19:34.826Z,731.63
2015-10-19T00:19:48.029Z,731.5
2015-10-19T00:20:01.233Z,731.51
2015-10-19T00:20:14.436Z,731.43
2015-10-19T00:20:27.657Z,731.64
2015-10-19T00:20:40.876Z,731.63
2015-10-19T00:20:54.111Z,731.55
2015-10-19T00:21:07.345Z,731.57
2015-10-19T00:21:20.551Z,731.57
2015-10-19T00:21:33.004Z,731.56
2015-10-19T00:21:46.207Z,731.58
2015-10-19T00:21:59.395Z,731.59
2015-10-19T00:22:12.598Z,731.56
2015-10-19T00:22:25.803Z,731.45
2015-10-19T00:22:39.006Z,731.51
2015-10-19T00:22:52.225Z,731.54
2015-10-19T00:23:05.459Z,731.51
2015-10-19T00:23:18.709Z,731.53
2015-10-19T00:23:31.947Z,731.55
2015-10-19T00:23:45.150Z,731.54
2015-10-19T00:23:58.353Z,731.58
2015-10-19T00:24:11.556Z,731.48
2015-10-19T00:24:24.761Z,731.51
2015-10-19T00:24:37.949Z,731.55
2015-10-19T00:24:51.152Z,731.52
2015-10-19T00:25:04.371Z,731.54
2015-10-19T00:25:17.589Z,731.51
2015-10-19T00:25:30.827Z,731.53
2015-10-19T00:25:44.030Z,731.56
2015-10-19T00:25:57.233Z,731.53
2015-10-19T00:26:10.420Z,731.41
2015-10-19T00:26:23.627Z,731.43
2015-10-19T00:26:36.845Z,731.35
2015-10-19T00:26:50.064Z,731.63
2015-10-19T00:27:03.330Z,731.53
2015-10-19T00:27:16.548Z,731.6
2015-10-19T00:27:29.755Z,731.6
2015-10-19T00:27:42.958Z,731.38
2015-10-19T00:27:56.161Z,731.35
2015-10-19T00:28:09.364Z,731.25
2015-10-19T00:28:22.567Z,731.47
2015-10-19T00:28:35.789Z,731.6
2015-10-19T00:28:49.008Z,731.52
2015-10-19T00:29:02.258Z,731.51
2015-10-19T00:29:15.539Z,731.5
2015-10-19T00:29:28.775Z,731.53
2015-10-19T00:29:41.963Z,731.57
2015-10-19T00:29:55.181Z,731.55
2015-10-19T00:30:08.213Z,731.55
2015-10-19T00:30:21.416Z,731.51
2015-10-19T00:30:34.638Z,731.52
2015-10-19T00:30:47.888Z,731.52
2015-10-19T00:31:01.122Z,731.53
2015-10-19T00:31:14.356Z,731.54
2015-10-19T00:31:27.562Z,731.51
2015-10-19T00:31:40.750Z,731.52
2015-10-19T00:31:53.953Z,731.45
2015-10-19T00:32:07.156Z,731.48
2015-10-19T00:32:20.344Z,731.52
2015-10-19T00:32:33.564Z,731.49
2015-10-19T00:32:46.783Z,731.43
2015-10-19T00:32:59.861Z,731.56
2015-10-19T00:33:13.096Z,731.48
2015-10-19T00:33:26.314Z,731.41
2015-10-19T00:33:39.521Z,731.46
2015-10-19T00:33:52.771Z,731.47
2015-10-19T00:34:05.974Z,731.47
2015-10-19T00:34:19.177Z,731.46
2015-10-19T00:34:32.383Z,731.46
2015-10-19T00:34:45.602Z,731.55
2015-10-19T00:34:58.820Z,731.57
2015-10-19T00:35:11.914Z,731.52
2015-10-19T00:35:25.149Z,731.49
2015-10-19T00:35:38.386Z,731.52
2015-10-19T00:35:51.605Z,731.43
2015-10-19T00:36:04.808Z,731.44
2015-10-19T00:36:18.011Z,731.48
2015-10-19T00:36:31.201Z,731.5
2015-10-19T00:36:44.420Z,731.48
2015-10-19T00:36:57.608Z,731.43
2015-10-19T00:37:10.826Z,731.42
2015-10-19T00:37:24.045Z,731.56
2015-10-19T00:37:37.267Z,731.5
2015-10-19T00:37:50.517Z,731.52
2015-10-19T00:38:03.720Z,731.52
2015-10-19T00:38:16.908Z,731.41
2015-10-19T00:38:30.111Z,731.42
2015-10-19T00:38:43.316Z,731.46
2015-10-19T00:38:56.535Z,731.39
2015-10-19T00:39:09.738Z,731.39
2015-10-19T00:39:22.925Z,731.42
2015-10-19T00:39:36.178Z,731.42
2015-10-19T00:39:49.413Z,731.39
2015-10-19T00:40:02.663Z,731.42
2015-10-19T00:40:15.881Z,731.42
2015-10-19T00:40:29.084Z,731.44
2015-10-19T00:40:42.291Z,731.47
2015-10-19T00:40:55.494Z,731.41
2015-10-19T00:41:08.697Z,731.32
2015-10-19T00:41:21.900Z,731.36
2015-10-19T00:41:35.105Z,731.35
2015-10-19T00:41:48.355Z,731.32
2015-10-19T00:42:01.589Z,731.36
2015-10-19T00:42:14.808Z,731.43
2015-10-19T00:42:27.996Z,731.4
2015-10-19T00:42:41.202Z,731.35
2015-10-19T00:42:54.405Z,731.39
2015-10-19T00:43:07.624Z,731.37
2015-10-19T00:43:20.827Z,731.43
2015-10-19T00:43:34.061Z,731.42
2015-10-19T00:43:47.298Z,731.39
2015-10-19T00:44:00.501Z,731.45
2015-10-19T00:44:13.673Z,731.42
2015-10-19T00:44:26.860Z,731.41
2015-10-19T00:44:40.051Z,731.43
2015-10-19T00:44:53.238Z,731.39
2015-10-19T00:45:06.426Z,731.46
2015-10-19T00:45:19.644Z,731.45
2015-10-19T00:45:32.863Z,731.44
2015-10-19T00:45:46.100Z,731.44
2015-10-19T00:45:59.319Z,731.4
2015-10-19T00:46:12.522Z,731.4
2015-10-19T00:46:25.725Z,731.41
2015-10-19T00:46:38.931Z,731.43
2015-10-19T00:46:52.134Z,731.43
2015-10-19T00:47:05.352Z,731.41
2015-10-19T00:47:18.587Z,731.47
2015-10-19T00:47:31.837Z,731.45
2015-10-19T00:47:45.043Z,731.43
2015-10-19T00:47:58.230Z,731.34
2015-10-19T00:48:11.434Z,731.37
2015-10-19T00:48:24.637Z,731.4
2015-10-19T00:48:37.858Z,731.36
2015-10-19T00:48:51.062Z,731.38
2015-10-19T00:49:04.280Z,731.43
2015-10-19T00:49:17.499Z,731.4
2015-10-19T00:49:30.718Z,731.4
2015-10-19T00:49:43.971Z,731.43
2015-10-19T00:49:57.174Z,731.43
2015-10-19T00:50:10.361Z,731.45
2015-10-19T00:50:23.565Z,731.44
2015-10-19T00:50:36.768Z,731.42
2015-10-19T00:50:49.973Z,731.45
2015-10-19T00:51:03.192Z,731.42
2015-10-19T00:51:16.442Z,731.44
2015-10-19T00:51:29.473Z,731.47
2015-10-19T00:51:42.679Z,731.48
2015-10-19T00:51:55.882Z,731.43
2015-10-19T00:52:09.085Z,731.46
2015-10-19T00:52:22.288Z,731.45
2015-10-19T00:52:35.523Z,731.48
2015-10-19T00:52:48.760Z,731.45
2015-10-19T00:53:01.994Z,731.42
2015-10-19T00:53:15.213Z,731.49
2015-10-19T00:53:28.416Z,731.45
2015-10-19T00:53:41.622Z,731.48
2015-10-19T00:53:54.826Z,731.45
2015-10-19T00:54:08.029Z,731.44
2015-10-19T00:54:21.216Z,731.43
2015-10-19T00:54:34.435Z,731.45
2015-10-19T00:54:47.640Z,731.48
2015-10-19T00:55:00.874Z,731.46
2015-10-19T00:55:14.109Z,731.48
2015-10-19T00:55:27.343Z,731.45
2015-10-19T00:55:40.578Z,731.42
2015-10-19T00:55:53.784Z,731.38
2015-10-19T00:56:06.987Z,731.43
2015-10-19T00:56:20.190Z,731.41
2015-10-19T00:56:33.377Z,731.43
2015-10-19T00:56:46.427Z,731.44
2015-10-19T00:56:59.474Z,731.4
2015-10-19T00:57:12.693Z,731.45
2015-10-19T00:57:25.927Z,731.43
2015-10-19T00:57:39.162Z,731.47
2015-10-19T00:57:52.415Z,731.45
2015-10-19T00:58:05.618Z,731.46
2015-10-19T00:58:18.821Z,731.46
2015-10-19T00:58:32.008Z,731.46
2015-10-19T00:58:45.214Z,731.49
2015-10-19T00:58:58.417Z,731.53
2015-10-19T00:59:11.620Z,731.48
2015-10-19T00:59:24.839Z,731.48
2015-10-19T00:59:38.057Z,731.49
2015-10-19T00:59:51.310Z,731.5
2015-10-19T01:00:04.545Z,731.5
2015-10-19T01:00:17.795Z,731.48
2015-10-19T01:00:30.998Z,731.49
2015-10-19T01:00:44.201Z,731.49
2015-10-19T01:00:57.406Z,731.46
2015-10-19T01:01:10.609Z,731.42
2015-10-19T01:01:23.797Z,731.39
2015-10-19T01:01:37.015Z,731.46
2015-10-19T01:01:50.238Z,731.51
2015-10-19T01:02:03.473Z,731.52
2015-10-19T01:02:16.707Z,731.51
2015-10-19T01:02:29.957Z,731.51
2015-10-19T01:02:43.191Z,731.48
2015-10-19T01:02:56.381Z,731.48
2015-10-19T01:03:09.584Z,731.44
2015-10-19T01:03:22.787Z,731.44
2015-10-19T01:03:35.990Z,731.44
2015-10-19T01:03:49.196Z,731.44
2015-10-19T01:04:02.384Z,731.41
2015-10-19T01:04:15.618Z,731.48
2015-10-19T01:04:28.821Z,731.47
2015-10-19T01:04:42.056Z,731.46
2015-10-19T01:04:55.293Z,731.51
2015-10-19T01:05:08.559Z,731.47
2015-10-19T01:05:21.762Z,731.54
2015-10-19T01:05:34.965Z,731.48
2015-10-19T01:05:48.168Z,731.5
2015-10-19T01:06:01.373Z,731.49
2015-10-19T01:06:14.576Z,731.54
2015-10-19T01:06:27.779Z,731.47
2015-10-19T01:06:40.998Z,731.55
2015-10-19T01:06:54.220Z,731.46
2015-10-19T01:07:07.454Z,731.53
2015-10-19T01:07:20.657Z,731.5
2015-10-19T01:07:33.845Z,731.55
2015-10-19T01:07:47.048Z,731.53
2015-10-19T01:08:00.270Z,731.56
2015-10-19T01:08:13.489Z,731.49
2015-10-19T01:08:26.723Z,731.53
2015-10-19T01:08:39.957Z,731.45
2015-10-19T01:08:53.195Z,731.42
2015-10-19T01:09:06.429Z,731.53
2015-10-19T01:09:19.632Z,731.57
2015-10-19T01:09:32.835Z,731.46
2015-10-19T01:09:46.023Z,731.44
2015-10-19T01:09:59.228Z,731.45
2015-10-19T01:10:12.431Z,731.38
2015-10-19T01:10:25.619Z,731.43
2015-10-19T01:10:38.853Z,731.39
2015-10-19T01:10:52.072Z,731.39
2015-10-19T01:11:05.325Z,731.34
2015-10-19T01:11:18.512Z,731.37
2015-10-19T01:11:31.715Z,731.3
2015-10-19T01:11:44.918Z,731.22
2015-10-19T01:11:58.125Z,731.32
2015-10-19T01:12:11.328Z,731.41
2015-10-19T01:12:24.546Z,731.46
2015-10-19T01:12:37.765Z,731.42
2015-10-19T01:12:51.031Z,731.38
2015-10-19T01:13:04.252Z,731.45
2015-10-19T01:13:17.455Z,731.45
2015-10-19T01:13:30.673Z,731.34
2015-10-19T01:13:43.861Z,731.39
2015-10-19T01:13:57.052Z,731.41
2015-10-19T01:14:10.271Z,731.48
2015-10-19T01:14:23.490Z,731.47
2015-10-19T01:14:36.693Z,731.41
2015-10-19T01:14:49.927Z,731.4
2015-10-19T01:15:03.164Z,731.3
2015-10-19T01:15:16.414Z,731.37
2015-10-19T01:15:29.601Z,731.46
2015-10-19T01:15:42.664Z,731.5
2015-10-19T01:15:55.867Z,731.52
2015-10-19T01:16:09.056Z,731.53
2015-10-19T01:16:22.260Z,731.54
2015-10-19T01:16:35.463Z,731.54
2015-10-19T01:16:48.681Z,731.54
2015-10-19T01:17:01.919Z,731.47
2015-10-19T01:17:15.153Z,731.39
2015-10-19T01:17:28.388Z,731.49
2015-10-19T01:17:41.591Z,731.46
2015-10-19T01:17:54.809Z,731.42
2015-10-19T01:18:08.016Z,731.47
2015-10-19T01:18:21.203Z,731.5
2015-10-19T01:18:34.406Z,731.45
2015-10-19T01:18:47.609Z,731.49
2015-10-19T01:19:00.675Z,731.44
2015-10-19T01:19:13.909Z,731.38
2015-10-19T01:19:27.144Z,731.34
2015-10-19T01:19:40.378Z,731.36
2015-10-19T01:19:53.565Z,731.41
2015-10-19T01:20:06.771Z,731.43
2015-10-19T01:20:19.974Z,731.51
2015-10-19T01:20:33.177Z,731.41
2015-10-19T01:20:46.364Z,731.42
2015-10-19T01:20:59.583Z,731.45
2015-10-19T01:21:12.805Z,731.48
2015-10-19T01:21:26.008Z,731.45
2015-10-19T01:21:39.211Z,731.42
2015-10-19T01:21:52.399Z,731.48
2015-10-19T01:22:05.605Z,731.41
2015-10-19T01:22:18.808Z,731.44
2015-10-19T01:22:31.995Z,731.39
2015-10-19T01:22:45.214Z,731.45
2015-10-19T01:22:58.417Z,731.37
2015-10-19T01:23:11.669Z,731.45
2015-10-19T01:23:24.904Z,731.39
2015-10-19T01:23:38.091Z,731.42
2015-10-19T01:23:51.138Z,731.38
2015-10-19T01:24:04.329Z,731.32
2015-10-19T01:24:17.533Z,731.38
2015-10-19T01:24:30.751Z,731.38
2015-10-19T01:24:43.986Z,731.28
2015-10-19T01:24:57.236Z,731.37
2015-10-19T01:25:10.456Z,731.4
2015-10-19T01:25:23.660Z,731.42
2015-10-19T01:25:36.863Z,731.48
2015-10-19T01:25:50.066Z,731.47
2015-10-19T01:26:03.269Z,731.39
2015-10-19T01:26:16.475Z,731.42
2015-10-19T01:26:29.678Z,731.39
2015-10-19T01:26:42.897Z,731.45
2015-10-19T01:26:56.116Z,731.45
2015-10-19T01:27:09.400Z,731.44
2015-10-19T01:27:22.587Z,731.44
2015-10-19T01:27:35.775Z,731.39
2015-10-19T01:27:48.994Z,731.43
2015-10-19T01:28:02.197Z,731.37
2015-10-19T01:28:15.433Z,731.43
2015-10-19T01:28:28.636Z,731.33
2015-10-19T01:28:41.871Z,731.46
2015-10-19T01:28:55.121Z,731.39
2015-10-19T01:29:08.342Z,731.5
2015-10-19T01:29:21.546Z,731.51
2015-10-19T01:29:34.749Z,731.45
2015-10-19T01:29:47.936Z,731.48
2015-10-19T01:30:01.155Z,731.52
2015-10-19T01:30:14.360Z,731.54
2015-10-19T01:30:27.579Z,731.49
2015-10-19T01:30:40.798Z,731.49
2015-10-19T01:30:54.048Z,731.51
2015-10-19T01:31:07.282Z,731.51
2015-10-19T01:31:20.489Z,731.45
2015-10-19T01:31:33.677Z,731.42
2015-10-19T01:31:46.880Z,731.45
2015-10-19T01:32:00.083Z,731.46
2015-10-19T01:32:13.288Z,731.47
2015-10-19T01:32:26.491Z,731.44
2015-10-19T01:32:39.710Z,731.47
2015-10-19T01:32:52.975Z,731.5
2015-10-19T01:33:06.210Z,731.49
2015-10-19T01:33:19.432Z,731.46
2015-10-19T01:33:32.635Z,731.5
2015-10-19T01:33:45.838Z,731.49
2015-10-19T01:33:59.041Z,731.48
2015-10-19T01:34:12.247Z,731.51
2015-10-19T01:34:25.435Z,731.5
2015-10-19T01:34:38.638Z,731.48
2015-10-19T01:34:51.700Z,731.52
2015-10-19T01:35:04.935Z,731.45
2015-10-19T01:35:18.202Z,731.47
2015-10-19T01:35:31.437Z,731.46
2015-10-19T01:35:44.640Z,731.47
2015-10-19T01:35:57.843Z,731.43
2015-10-19T01:36:11.030Z,731.41
2015-10-19T01:36:24.236Z,731.4
2015-10-19T01:36:37.440Z,731.44
2015-10-19T01:36:50.643Z,731.44
2015-10-19T01:37:03.877Z,731.45
2015-10-19T01:37:17.083Z,731.43
2015-10-19T01:37:30.333Z,731.47
2015-10-19T01:37:43.583Z,731.42
2015-10-19T01:37:56.818Z,731.42
2015-10-19T01:38:10.052Z,731.38
2015-10-19T01:38:23.257Z,731.37
2015-10-19T01:38:36.445Z,731.38
2015-10-19T01:38:49.632Z,731.36
2015-10-19T01:39:02.835Z,731.28
2015-10-19T01:39:16.041Z,731.42
2015-10-19T01:39:29.244Z,731.37
2015-10-19T01:39:42.463Z,731.39
2015-10-19T01:39:55.698Z,731.35
2015-10-19T01:40:08.932Z,731.43
2015-10-19T01:40:22.122Z,731.39
2015-10-19T01:40:35.326Z,731.37
2015-10-19T01:40:48.529Z,731.36
2015-10-19T01:41:01.732Z,731.34
2015-10-19T01:41:14.951Z,731.38
2015-10-19T01:41:28.157Z,731.38
2015-10-19T01:41:41.407Z,731.39
2015-10-19T01:41:54.610Z,731.33
2015-10-19T01:42:07.797Z,731.36
2015-10-19T01:42:21.019Z,731.36
2015-10-19T01:42:34.207Z,731.36
2015-10-19T01:42:47.425Z,731.33
2015-10-19T01:43:00.628Z,731.4
2015-10-19T01:43:13.863Z,731.34
2015-10-19T01:43:27.099Z,731.36
2015-10-19T01:43:40.349Z,731.32
2015-10-19T01:43:53.537Z,731.28
2015-10-19T01:44:06.740Z,731.32
2015-10-19T01:44:19.946Z,731.33
2015-10-19T01:44:33.133Z,731.3
2015-10-19T01:44:46.352Z,731.29
2015-10-19T01:44:59.555Z,731.3
2015-10-19T01:45:12.758Z,731.28
2015-10-19T01:45:25.996Z,731.32
2015-10-19T01:45:39.230Z,731.37
2015-10-19T01:45:52.465Z,731.39
2015-10-19T01:46:05.699Z,731.35
2015-10-19T01:46:18.902Z,731.34
2015-10-19T01:46:32.092Z,731.34
2015-10-19T01:46:45.295Z,731.36
2015-10-19T01:46:58.513Z,731.43
2015-10-19T01:47:11.717Z,731.39
2015-10-19T01:47:24.923Z,731.39
2015-10-19T01:47:38.141Z,731.36
2015-10-19T01:47:51.360Z,731.4
2015-10-19T01:48:04.641Z,731.42
2015-10-19T01:48:17.891Z,731.39
2015-10-19T01:48:31.113Z,731.41
2015-10-19T01:48:44.301Z,731.41
2015-10-19T01:48:57.348Z,731.36
2015-10-19T01:49:10.551Z,731.36
2015-10-19T01:49:23.756Z,731.34
2015-10-19T01:49:36.959Z,731.34
2015-10-19T01:49:50.162Z,731.33
2015-10-19T01:50:03.381Z,731.35
2015-10-19T01:50:16.600Z,731.36
2015-10-19T01:50:29.838Z,731.37
2015-10-19T01:50:43.088Z,731.34
2015-10-19T01:50:56.307Z,731.35
2015-10-19T01:51:09.510Z,731.42
2015-10-19T01:51:22.713Z,731.37
2015-10-19T01:51:35.762Z,731.39
2015-10-19T01:51:48.981Z,731.34
2015-10-19T01:52:02.199Z,731.33
2015-10-19T01:52:15.434Z,731.39
2015-10-19T01:52:28.670Z,731.33
2015-10-19T01:52:41.936Z,731.36
2015-10-19T01:52:55.123Z,731.34
2015-10-19T01:53:08.326Z,731.34
2015-10-19T01:53:21.529Z,731.35
2015-10-19T01:53:34.736Z,731.35
2015-10-19T01:53:47.939Z,731.36
2015-10-19T01:54:01.142Z,731.37
2015-10-19T01:54:14.361Z,731.36
2015-10-19T01:54:27.582Z,731.38
2015-10-19T01:54:40.817Z,731.36
2015-10-19T01:54:54.020Z,731.37
2015-10-19T01:55:07.239Z,731.38
2015-10-19T01:55:20.442Z,731.4
2015-10-19T01:55:33.647Z,731.43
2015-10-19T01:55:46.850Z,731.4
2015-10-19T01:56:00.084Z,731.42
2015-10-19T01:56:13.303Z,731.43
2015-10-19T01:56:26.553Z,731.45
2015-10-19T01:56:39.790Z,731.44
2015-10-19T01:56:52.994Z,731.43
2015-10-19T01:57:06.181Z,731.44
2015-10-19T01:57:19.384Z,731.42
2015-10-19T01:57:32.590Z,731.43
2015-10-19T01:57:45.778Z,731.47
2015-10-19T01:57:58.981Z,731.47
2015-10-19T01:58:12.215Z,731.34
2015-10-19T01:58:25.434Z,731.4
2015-10-19T01:58:38.687Z,731.45
2015-10-19T01:58:51.906Z,731.43
2015-10-19T01:59:05.093Z,731.46
2015-10-19T01:59:18.281Z,731.42
2015-10-19T01:59:31.471Z,731.4
2015-10-19T01:59:44.659Z,731.39
2015-10-19T01:59:57.846Z,731.35
2015-10-19T02:00:10.893Z,731.27
2015-10-19T02:00:24.112Z,731.28
2015-10-19T02:00:37.333Z,731.33
2015-10-19T02:00:50.536Z,731.36
2015-10-19T02:01:03.739Z,731.35
2015-10-19T02:01:16.942Z,731.37
2015-10-19T02:01:30.098Z,731.39
2015-10-19T02:01:43.320Z,731.33
2015-10-19T02:01:56.523Z,731.32
2015-10-19T02:02:09.773Z,731.3
2015-10-19T02:02:23.008Z,731.33
2015-10-19T02:02:36.260Z,731.36
2015-10-19T02:02:49.463Z,731.29
2015-10-19T02:03:02.666Z,731.36
2015-10-19T02:03:15.885Z,731.38
2015-10-19T02:03:29.072Z,731.36
2015-10-19T02:03:42.279Z,731.35
2015-10-19T02:03:55.482Z,731.31
2015-10-19T02:04:08.701Z,731.34
2015-10-19T02:04:21.904Z,731.32
2015-10-19T02:04:35.172Z,731.35
2015-10-19T02:04:48.406Z,731.34
2015-10-19T02:05:01.641Z,731.29
2015-10-19T02:05:14.844Z,731.3
2015-10-19T02:05:28.047Z,731.34
2015-10-19T02:05:41.237Z,731.3
2015-10-19T02:05:54.440Z,731.27
2015-10-19T02:06:07.628Z,731.27
2015-10-19T02:06:20.847Z,731.25
2015-10-19T02:06:34.067Z,731.14
2015-10-19T02:06:47.302Z,731.28
2015-10-19T02:07:00.552Z,731.22
2015-10-19T02:07:13.739Z,731.23
2015-10-19T02:07:26.942Z,731.26
2015-10-19T02:07:40.149Z,731.27
2015-10-19T02:07:53.367Z,731.29
2015-10-19T02:08:06.570Z,731.29
2015-10-19T02:08:19.789Z,731.26
2015-10-19T02:08:33.039Z,731.28
2015-10-19T02:08:46.261Z,731.28
2015-10-19T02:08:59.464Z,731.29
2015-10-19T02:09:12.652Z,731.32
2015-10-19T02:09:25.855Z,731.28
2015-10-19T02:09:39.061Z,731.32
2015-10-19T02:09:52.264Z,731.27
2015-10-19T02:10:05.467Z,731.27
2015-10-19T02:10:18.670Z,731.31
2015-10-19T02:10:31.905Z,731.24
2015-10-19T02:10:45.141Z,731.15
2015-10-19T02:10:58.344Z,731.23
2015-10-19T02:11:11.547Z,731.19
2015-10-19T02:11:24.735Z,731.2
2015-10-19T02:11:37.941Z,731.15
2015-10-19T02:11:51.160Z,731.15
2015-10-19T02:12:04.378Z,731.19
2015-10-19T02:12:17.628Z,731.27
2015-10-19T02:12:30.894Z,731.25
2015-10-19T02:12:43.944Z,731.18
2015-10-19T02:12:57.131Z,731.22
2015-10-19T02:13:10.334Z,731.18
2015-10-19T02:13:23.538Z,731.18
2015-10-19T02:13:36.725Z,731.25
2015-10-19T02:13:49.931Z,731.3
2015-10-19T02:14:03.197Z,731.25
2015-10-19T02:14:16.416Z,731.26
2015-10-19T02:14:29.650Z,731.32
2015-10-19T02:14:42.902Z,731.29
2015-10-19T02:14:56.121Z,731.27
2015-10-19T02:15:09.308Z,731.28
2015-10-19T02:15:22.496Z,731.27
2015-10-19T02:15:35.699Z,731.22
2015-10-19T02:15:48.905Z,731.22
2015-10-19T02:16:02.092Z,731.28
2015-10-19T02:16:15.296Z,731.22
2015-10-19T02:16:28.499Z,731.21
2015-10-19T02:16:41.720Z,731.19
2015-10-19T02:16:54.970Z,731.17
2015-10-19T02:17:08.189Z,731.14
2015-10-19T02:17:21.392Z,731.17
2015-10-19T02:17:34.580Z,731.2
2015-10-19T02:17:47.786Z,731.17
2015-10-19T02:18:00.973Z,731.17
2015-10-19T02:18:14.177Z,731.18
2015-10-19T02:18:27.395Z,731.18
2015-10-19T02:18:40.614Z,731.22
2015-10-19T02:18:53.851Z,731.18
2015-10-19T02:19:07.086Z,731.12
2015-10-19T02:19:20.320Z,731.24
2015-10-19T02:19:33.508Z,731.22
2015-10-19T02:19:46.713Z,731.19
2015-10-19T02:19:59.900Z,731.23
2015-10-19T02:20:13.103Z,731.25
2015-10-19T02:20:26.307Z,731.28
2015-10-19T02:20:39.525Z,731.25
2015-10-19T02:20:52.747Z,731.25
2015-10-19T02:21:05.966Z,731.24
2015-10-19T02:21:19.216Z,731.26
2015-10-19T02:21:32.263Z,731.27
2015-10-19T02:21:45.468Z,731.25
2015-10-19T02:21:58.671Z,731.25
2015-10-19T02:22:11.874Z,731.23
2015-10-19T02:22:25.093Z,731.25
2015-10-19T02:22:38.312Z,731.25
2015-10-19T02:22:51.549Z,731.25
2015-10-19T02:23:04.783Z,731.27
2015-10-19T02:23:18.033Z,731.23
2015-10-19T02:23:31.236Z,731.26
2015-10-19T02:23:44.424Z,731.27
2015-10-19T02:23:57.630Z,731.24
2015-10-19T02:24:10.818Z,731.26
2015-10-19T02:24:24.036Z,731.25
2015-10-19T02:24:37.239Z,731.26
2015-10-19T02:24:50.460Z,731.29
2015-10-19T02:25:03.695Z,731.27
2015-10-19T02:25:16.913Z,731.19
2015-10-19T02:25:30.148Z,731.27
2015-10-19T02:25:43.382Z,731.25
2015-10-19T02:25:56.604Z,731.26
2015-10-19T02:26:09.807Z,731.21
2015-10-19T02:26:22.854Z,731.19
2015-10-19T02:26:36.057Z,731.22
2015-10-19T02:26:49.263Z,731.14
2015-10-19T02:27:02.466Z,731.21
2015-10-19T02:27:15.685Z,731.21
2015-10-19T02:27:28.904Z,731.21
2015-10-19T02:27:42.138Z,731.2
2015-10-19T02:27:55.344Z,731.26
2015-10-19T02:28:08.547Z,731.24
2015-10-19T02:28:21.750Z,731.24
2015-10-19T02:28:34.954Z,731.22
2015-10-19T02:28:48.000Z,731.25
2015-10-19T02:29:01.206Z,731.26
2015-10-19T02:29:14.440Z,731.24
2015-10-19T02:29:27.659Z,731.23
2015-10-19T02:29:40.893Z,731.26
2015-10-19T02:29:54.130Z,731.26
2015-10-19T02:30:07.037Z,731.25
2015-10-19T02:30:20.240Z,731.23
2015-10-19T02:30:33.459Z,731.22
2015-10-19T02:30:46.662Z,731.24
2015-10-19T02:30:59.868Z,731.25
2015-10-19T02:31:13.087Z,731.27
2015-10-19T02:31:26.149Z,731.23
2015-10-19T02:31:39.368Z,731.25
2015-10-19T02:31:52.621Z,731.25
2015-10-19T02:32:05.840Z,731.22
2015-10-19T02:32:19.027Z,731.31
2015-10-19T02:32:32.230Z,731.28
2015-10-19T02:32:45.418Z,731.24
2015-10-19T02:32:58.624Z,731.21
2015-10-19T02:33:11.827Z,731.17
2015-10-19T02:33:25.046Z,731.14
2015-10-19T02:33:38.264Z,731.19
2015-10-19T02:33:51.483Z,731.17
2015-10-19T02:34:04.766Z,731.22
2015-10-19T02:34:17.970Z,731.25
2015-10-19T02:34:31.157Z,731.24
2015-10-19T02:34:44.360Z,731.24
2015-10-19T02:34:57.565Z,731.24
2015-10-19T02:35:10.753Z,731.25
2015-10-19T02:35:23.956Z,731.23
2015-10-19T02:35:37.159Z,731.2
2015-10-19T02:35:50.378Z,731.2
2015-10-19T02:36:03.631Z,731.16
2015-10-19T02:36:16.881Z,731.22
2015-10-19T02:36:30.100Z,731.17
2015-10-19T02:36:43.303Z,731.21
2015-10-19T02:36:56.478Z,731.16
2015-10-19T02:37:09.665Z,731.21
2015-10-19T02:37:22.853Z,731.25
2015-10-19T02:37:36.024Z,731.22
2015-10-19T02:37:49.228Z,731.23
2015-10-19T02:38:02.449Z,731.22
2015-10-19T02:38:15.668Z,731.21
2015-10-19T02:38:28.902Z,731.23
2015-10-19T02:38:42.090Z,731.24
2015-10-19T02:38:55.293Z,731.24
2015-10-19T02:39:08.515Z,731.25
2015-10-19T02:39:21.718Z,731.28
2015-10-19T02:39:34.921Z,731.29
2015-10-19T02:39:48.109Z,731.27
2015-10-19T02:40:01.330Z,731.24
2015-10-19T02:40:14.565Z,731.27
2015-10-19T02:40:27.799Z,731.28
2015-10-19T02:40:41.018Z,731.26
2015-10-19T02:40:54.221Z,731.29
2015-10-19T02:41:07.426Z,731.31
2015-10-19T02:41:20.614Z,731.25
2015-10-19T02:41:33.817Z,731.18
2015-10-19T02:41:47.035Z,731.17
2015-10-19T02:42:00.288Z,731.22
2015-10-19T02:42:13.507Z,731.15
2015-10-19T02:42:26.757Z,731.17
2015-10-19T02:42:39.960Z,731.22
2015-10-19T02:42:53.148Z,731.2
2015-10-19T02:43:06.354Z,731.23
2015-10-19T02:43:19.541Z,731.23
2015-10-19T02:43:32.745Z,731.22
2015-10-19T02:43:45.948Z,731.24
2015-10-19T02:43:59.166Z,731.24
2015-10-19T02:44:12.403Z,731.26
2015-10-19T02:44:25.637Z,731.23
2015-10-19T02:44:38.856Z,731.25
2015-10-19T02:44:52.122Z,731.29
2015-10-19T02:45:05.328Z,731.26
2015-10-19T02:45:18.531Z,731.19